createdAt,value
2023-01-29T00:01:54.390Z,8.70
2023-01-29T00:04:20.972Z,8.32
2023-01-29T00:06:47.539Z,9.20
2023-01-29T00:09:14.439Z,9.07
2023-01-29T00:11:41.134Z,9.55
2023-01-29T00:14:07.972Z,9.63
2023-01-29T00:16:34.442Z,9.52
2023-01-29T00:19:02.546Z,9.35
2023-01-29T00:21:31.058Z,9.18
2023-01-29T00:23:58.862Z,9.18
2023-01-29T00:26:26.003Z,9.80
2023-01-29T00:28:52.507Z,9.75
2023-01-29T00:31:21.817Z,10.43
2023-01-29T00:33:48.965Z,10.27
2023-01-29T00:36:17.748Z,9.57
2023-01-29T00:38:44.807Z,9.17
2023-01-29T00:41:34.459Z,9.18
2023-01-29T00:44:20.223Z,9.52
2023-01-29T00:46:46.739Z,9.23
2023-01-29T00:49:13.251Z,10.40
2023-01-29T00:51:40.084Z,9.87
2023-01-29T00:54:07.037Z,9.82
2023-01-29T00:56:37.412Z,9.90
2023-01-29T00:59:04.585Z,9.48
2023-01-29T01:01:49.355Z,9.95
2023-01-29T01:04:15.874Z,9.87
2023-01-29T01:06:43.126Z,10.68
2023-01-29T01:09:43.613Z,9.07
2023-01-29T01:12:10.068Z,9.52
2023-01-29T01:14:36.497Z,10.70
2023-01-29T01:17:02.978Z,9.73
2023-01-29T01:19:29.512Z,8.52
2023-01-29T01:21:55.932Z,9.65
2023-01-29T01:24:23.392Z,8.05
2023-01-29T01:26:49.938Z,9.13
2023-01-29T01:29:16.413Z,8.60
2023-01-29T01:31:42.852Z,8.95
2023-01-29T01:34:09.310Z,9.43
2023-01-29T01:36:35.758Z,8.65
2023-01-29T01:39:02.225Z,9.05
2023-01-29T01:41:30.612Z,9.27
2023-01-29T01:44:00.131Z,9.15
2023-01-29T01:46:31.601Z,8.77
2023-01-29T01:49:05.007Z,9.07
2023-01-29T01:51:34.009Z,8.95
2023-01-29T01:54:05.644Z,8.30
2023-01-29T01:56:40.612Z,8.07
2023-01-29T01:59:14.570Z,8.13
2023-01-29T02:01:47.887Z,8.48
2023-01-29T02:04:36.912Z,9.00
2023-01-29T02:07:25.658Z,8.97
2023-01-29T02:09:56.672Z,8.73
2023-01-29T02:12:23.342Z,8.00
2023-01-29T02:14:51.776Z,9.32
2023-01-29T02:17:19.997Z,8.98
2023-01-29T02:20:19.748Z,8.27
2023-01-29T02:22:56.027Z,9.25
2023-01-29T02:25:58.004Z,8.27
2023-01-29T02:28:32.722Z,8.27
2023-01-29T02:31:09.528Z,8.45
2023-01-29T02:33:59.536Z,8.93
2023-01-29T02:36:45.435Z,8.52
2023-01-29T02:39:17.373Z,8.80
2023-01-29T02:42:25.215Z,9.02
2023-01-29T02:45:08.090Z,8.82
2023-01-29T02:47:42.588Z,10.07
2023-01-29T02:50:18.579Z,8.55
2023-01-29T02:53:03.268Z,8.82
2023-01-29T02:55:45.530Z,9.05
2023-01-29T02:58:19.708Z,8.65
2023-01-29T03:00:48.001Z,9.37
2023-01-29T03:03:19.503Z,9.60
2023-01-29T03:05:57.080Z,8.45
2023-01-29T03:08:50.069Z,10.38
2023-01-29T03:11:17.779Z,9.95
2023-01-29T03:13:57.965Z,9.53
2023-01-29T03:16:37.133Z,9.48
2023-01-29T03:19:18.907Z,10.27
2023-01-29T03:21:51.219Z,8.98
2023-01-29T03:25:00.134Z,10.13
2023-01-29T03:27:55.286Z,9.33
2023-01-29T03:30:44.348Z,9.20
2023-01-29T03:33:13.192Z,9.93
2023-01-29T03:35:51.976Z,10.77
2023-01-29T03:38:19.686Z,10.27
2023-01-29T03:40:53.048Z,10.37
2023-01-29T03:43:26.557Z,10.35
2023-01-29T03:45:58.724Z,10.65
2023-01-29T03:48:35.083Z,10.88
2023-01-29T03:51:35.462Z,10.32
2023-01-29T03:54:20.148Z,10.70
2023-01-29T03:57:02.894Z,10.65
2023-01-29T03:59:45.042Z,10.23
2023-01-29T04:02:29.963Z,10.77
2023-01-29T04:04:59.808Z,10.50
2023-01-29T04:07:29.730Z,10.93
2023-01-29T04:10:01.603Z,9.75
2023-01-29T04:12:38.532Z,11.43
2023-01-29T04:15:09.998Z,9.95
2023-01-29T04:17:41.592Z,10.20
2023-01-29T04:20:09.497Z,10.97
2023-01-29T04:22:39.426Z,11.45
2023-01-29T04:25:16.086Z,10.90
2023-01-29T04:28:23.352Z,10.43
2023-01-29T04:31:05.439Z,10.77
2023-01-29T04:33:40.016Z,11.03
2023-01-29T04:36:38.200Z,10.57
2023-01-29T04:39:54.175Z,10.00
2023-01-29T04:42:33.239Z,10.57
2023-01-29T04:45:11.122Z,10.95
2023-01-29T04:48:07.609Z,10.50
2023-01-29T04:50:55.945Z,10.10
2023-01-29T04:53:36.238Z,10.00
2023-01-29T04:56:48.268Z,10.13
2023-01-29T04:59:21.150Z,10.27
2023-01-29T05:01:48.817Z,10.70
2023-01-29T05:04:19.681Z,11.07
2023-01-29T05:06:49.157Z,11.93
2023-01-29T05:09:17.764Z,10.30
2023-01-29T05:11:47.485Z,11.93
2023-01-29T05:14:17.130Z,11.50
2023-01-29T05:16:47.597Z,11.23
2023-01-29T05:19:16.127Z,11.10
2023-01-29T05:21:46.255Z,11.55
2023-01-29T05:24:18.390Z,12.55
2023-01-29T05:27:06.715Z,11.40
2023-01-29T05:29:33.212Z,11.48
2023-01-29T05:31:59.949Z,10.50
2023-01-29T05:34:26.587Z,11.35
2023-01-29T05:36:53.516Z,11.40
2023-01-29T05:39:20.001Z,11.07
2023-01-29T05:41:46.445Z,12.35
2023-01-29T05:44:13.228Z,10.98
2023-01-29T05:46:39.819Z,11.80
2023-01-29T05:49:06.750Z,11.73
2023-01-29T05:51:33.265Z,11.27
2023-01-29T05:53:59.691Z,11.05
2023-01-29T05:56:26.218Z,11.25
2023-01-29T05:58:52.754Z,11.60
2023-01-29T06:01:22.421Z,11.18
2023-01-29T06:03:48.815Z,11.00
2023-01-29T06:06:16.346Z,12.15
2023-01-29T06:08:42.937Z,11.02
2023-01-29T06:11:11.759Z,11.50
2023-01-29T06:13:38.892Z,10.68
2023-01-29T06:16:10.311Z,10.83
2023-01-29T06:18:37.536Z,10.70
2023-01-29T06:21:06.059Z,12.32
2023-01-29T06:23:33.607Z,10.82
2023-01-29T06:26:05.685Z,10.80
2023-01-29T06:28:32.456Z,10.87
2023-01-29T06:31:11.543Z,10.18
2023-01-29T06:33:47.553Z,11.13
2023-01-29T06:36:14.013Z,11.10
2023-01-29T06:38:40.436Z,8.82
2023-01-29T06:41:12.066Z,11.17
2023-01-29T06:43:39.672Z,10.57
2023-01-29T06:46:08.201Z,10.73
2023-01-29T06:48:35.214Z,11.07
2023-01-29T06:51:07.020Z,10.75
2023-01-29T06:53:34.492Z,10.33
2023-01-29T06:56:01.141Z,10.88
2023-01-29T06:58:27.634Z,10.93
2023-01-29T07:00:54.235Z,11.43
2023-01-29T07:03:20.754Z,10.13
2023-01-29T07:05:51.989Z,10.60
2023-01-29T07:08:18.899Z,10.88
2023-01-29T07:10:45.485Z,10.07
2023-01-29T07:13:11.896Z,10.73
2023-01-29T07:15:38.330Z,10.38
2023-01-29T07:18:12.048Z,11.70
2023-01-29T07:20:40.636Z,10.32
2023-01-29T07:23:10.834Z,10.80
2023-01-29T07:25:37.739Z,10.63
2023-01-29T07:28:04.822Z,9.80
2023-01-29T07:30:31.476Z,10.47
2023-01-29T07:33:07.523Z,9.93
2023-01-29T07:35:42.350Z,10.43
2023-01-29T07:38:10.348Z,10.48
2023-01-29T07:40:37.081Z,9.50
2023-01-29T07:43:06.583Z,11.00
2023-01-29T07:45:35.122Z,10.68
2023-01-29T07:48:01.565Z,10.02
2023-01-29T07:50:28.051Z,10.63
2023-01-29T07:52:54.984Z,10.05
2023-01-29T07:59:16.471Z,10.57
2023-01-29T08:01:42.963Z,10.18
2023-01-29T08:04:09.477Z,10.10
2023-01-29T08:06:35.958Z,10.98
2023-01-29T08:09:02.554Z,10.53
2023-01-29T08:11:29.060Z,10.77
2023-01-29T08:13:56.659Z,10.35
2023-01-29T08:16:23.405Z,10.57
2023-01-29T08:18:49.862Z,10.30
2023-01-29T08:21:16.466Z,9.80
2023-01-29T08:23:42.896Z,9.82
2023-01-29T08:26:09.448Z,10.15
2023-01-29T08:28:38.602Z,10.57
2023-01-29T08:31:12.851Z,9.90
2023-01-29T08:33:39.611Z,10.00
2023-01-29T08:36:07.380Z,9.95
2023-01-29T08:38:33.964Z,10.05
2023-01-29T08:41:00.442Z,10.07
2023-01-29T08:43:26.929Z,10.32
2023-01-29T08:45:53.406Z,9.50
2023-01-29T08:48:20.059Z,10.00
2023-01-29T08:50:46.467Z,10.15
2023-01-29T08:53:12.944Z,10.50
2023-01-29T08:55:40.539Z,10.38
2023-01-29T08:58:09.043Z,11.10
2023-01-29T09:00:36.037Z,9.57
2023-01-29T09:03:17.553Z,9.48
2023-01-29T09:05:44.049Z,10.35
2023-01-29T09:08:10.637Z,9.98
2023-01-29T09:10:37.239Z,9.47
2023-01-29T09:13:04.141Z,10.30
2023-01-29T09:15:30.969Z,9.07
2023-01-29T09:17:57.486Z,9.18
2023-01-29T09:20:24.516Z,10.20
2023-01-29T09:22:59.084Z,9.20
2023-01-29T09:25:25.631Z,9.38
2023-01-29T09:27:54.232Z,9.35
2023-01-29T09:30:20.872Z,9.23
2023-01-29T09:32:53.586Z,8.73
2023-01-29T09:35:23.625Z,9.97
2023-01-29T09:37:51.332Z,10.20
2023-01-29T09:40:35.735Z,9.43
2023-01-29T09:43:07.159Z,10.43
2023-01-29T09:45:39.525Z,9.90
2023-01-29T09:48:13.200Z,10.23
2023-01-29T09:50:44.133Z,10.20
2023-01-29T09:53:39.232Z,10.20
2023-01-29T09:56:13.229Z,9.90
2023-01-29T09:58:42.381Z,9.23
2023-01-29T10:01:29.329Z,8.97
2023-01-29T10:04:21.129Z,9.90
2023-01-29T10:07:11.220Z,10.23
2023-01-29T10:09:43.602Z,10.50
2023-01-29T10:12:22.135Z,9.93
2023-01-29T10:15:04.813Z,11.20
2023-01-29T10:18:00.246Z,9.90
2023-01-29T10:21:01.823Z,9.40
2023-01-29T10:23:38.575Z,10.13
2023-01-29T10:26:05.173Z,10.13
2023-01-29T10:28:46.467Z,9.90
2023-01-29T10:31:28.560Z,10.07
2023-01-29T10:34:03.382Z,9.55
2023-01-29T10:36:42.885Z,10.13
2023-01-29T10:39:18.669Z,9.93
2023-01-29T10:41:45.096Z,9.77
2023-01-29T10:44:20.723Z,10.43
2023-01-29T10:47:13.509Z,11.20
2023-01-29T10:50:06.547Z,9.23
2023-01-29T10:52:35.926Z,10.10
2023-01-29T10:55:21.156Z,10.70
2023-01-29T10:58:08.924Z,10.93
2023-01-29T11:00:41.356Z,9.88
2023-01-29T11:03:28.028Z,9.90
2023-01-29T11:05:58.184Z,10.20
2023-01-29T11:09:00.099Z,10.47
2023-01-29T11:11:46.181Z,11.00
2023-01-29T11:14:22.872Z,10.88
2023-01-29T11:16:49.659Z,10.68
2023-01-29T11:19:16.668Z,11.60
2023-01-29T11:21:56.590Z,10.13
2023-01-29T11:24:23.719Z,13.00
2023-01-29T11:26:51.859Z,11.68
2023-01-29T11:29:30.421Z,11.32
2023-01-29T11:31:58.715Z,11.68
2023-01-29T11:34:27.749Z,12.33
2023-01-29T11:37:02.888Z,12.02
2023-01-29T11:39:32.192Z,12.23
2023-01-29T11:42:04.428Z,12.85
2023-01-29T11:44:40.766Z,11.20
2023-01-29T11:47:16.453Z,12.50
2023-01-29T11:49:49.571Z,13.73
2023-01-29T11:52:20.554Z,12.70
2023-01-29T11:54:51.983Z,12.38
2023-01-29T11:57:27.721Z,12.18
2023-01-29T11:59:56.706Z,11.73
2023-01-29T12:02:31.866Z,12.23
2023-01-29T12:05:04.711Z,12.35
2023-01-29T12:07:32.748Z,12.77
2023-01-29T12:10:00.198Z,12.40
2023-01-29T12:12:32.601Z,13.40
2023-01-29T12:15:21.354Z,13.10
2023-01-29T12:17:56.298Z,12.60
2023-01-29T12:20:33.394Z,12.90
2023-01-29T12:23:03.489Z,13.55
2023-01-29T12:26:16.112Z,13.07
2023-01-29T12:29:13.430Z,12.43
2023-01-29T12:31:50.429Z,12.07
2023-01-29T12:34:32.502Z,13.18
2023-01-29T12:37:11.367Z,13.18
2023-01-29T12:39:37.858Z,12.83
2023-01-29T12:42:24.767Z,14.27
2023-01-29T12:45:01.414Z,12.93
2023-01-29T12:47:27.808Z,13.00
2023-01-29T12:50:00.560Z,11.90
2023-01-29T12:52:39.771Z,13.37
2023-01-29T12:55:19.568Z,13.57
2023-01-29T12:57:53.837Z,13.65
2023-01-29T13:00:27.086Z,13.25
2023-01-29T13:03:21.506Z,12.85
2023-01-29T13:05:52.448Z,12.80
2023-01-29T13:08:43.292Z,13.57
2023-01-29T13:11:26.649Z,12.18
2023-01-29T13:13:59.353Z,12.60
2023-01-29T13:16:45.230Z,13.32
2023-01-29T13:19:24.221Z,12.57
2023-01-29T13:21:53.054Z,13.93
2023-01-29T13:24:25.619Z,13.40
2023-01-29T13:26:52.209Z,12.95
2023-01-29T13:29:27.795Z,13.15
2023-01-29T13:31:56.679Z,13.97
2023-01-29T13:34:28.509Z,13.45
2023-01-29T13:37:04.256Z,14.40
2023-01-29T13:39:34.145Z,14.40
2023-01-29T13:42:02.854Z,13.77
2023-01-29T13:44:36.603Z,14.67
2023-01-29T13:47:07.231Z,12.93
2023-01-29T13:49:53.058Z,12.73
2023-01-29T13:53:02.250Z,13.43
2023-01-29T13:55:37.722Z,12.65
2023-01-29T13:58:15.806Z,11.73
2023-01-29T14:00:42.139Z,13.00
2023-01-29T14:03:08.850Z,13.40
2023-01-29T14:05:40.932Z,13.13
2023-01-29T14:08:14.648Z,13.73
2023-01-29T14:10:43.217Z,11.60
2023-01-29T14:13:15.705Z,12.23
2023-01-29T14:15:42.348Z,12.30
2023-01-29T14:18:08.723Z,12.07
2023-01-29T14:20:46.071Z,11.90
2023-01-29T14:23:40.407Z,11.73
2023-01-29T14:26:30.208Z,12.60
2023-01-29T14:29:07.678Z,12.20
2023-01-29T14:31:52.178Z,12.60
2023-01-29T14:34:30.988Z,12.10
2023-01-29T14:37:21.993Z,13.00
2023-01-29T14:39:55.709Z,12.43
2023-01-29T14:42:37.591Z,11.30
2023-01-29T14:45:22.038Z,11.82
2023-01-29T14:47:48.484Z,12.80
2023-01-29T14:50:33.267Z,12.00
2023-01-29T14:53:15.475Z,10.45
2023-01-29T14:56:05.447Z,11.73
2023-01-29T14:58:42.758Z,12.15
2023-01-29T15:01:36.224Z,10.45
2023-01-29T15:04:12.984Z,10.87
2023-01-29T15:06:49.791Z,11.85
2023-01-29T15:09:37.032Z,11.43
2023-01-29T15:12:44.194Z,13.02
2023-01-29T15:15:35.372Z,12.18
2023-01-29T15:18:29.116Z,11.37
2023-01-29T15:21:04.901Z,12.10
2023-01-29T15:23:34.224Z,11.60
2023-01-29T15:26:04.376Z,11.23
2023-01-29T15:28:33.123Z,11.30
2023-01-29T15:31:02.418Z,11.70
2023-01-29T15:33:29.195Z,11.55
2023-01-29T15:36:08.946Z,10.45
2023-01-29T15:38:36.130Z,11.23
2023-01-29T15:41:18.536Z,11.85
2023-01-29T15:43:50.590Z,11.67
2023-01-29T15:46:25.576Z,11.85
2023-01-29T15:48:55.545Z,12.68
2023-01-29T15:51:25.159Z,11.75
2023-01-29T15:54:04.450Z,11.35
2023-01-29T15:56:52.309Z,11.97
2023-01-29T15:59:26.041Z,10.43
2023-01-29T16:01:53.831Z,11.23
2023-01-29T16:04:30.908Z,12.18
2023-01-29T16:06:58.967Z,11.48
2023-01-29T16:09:27.128Z,12.10
2023-01-29T16:11:57.738Z,10.88
2023-01-29T16:14:25.744Z,11.07
2023-01-29T16:16:52.893Z,11.07
2023-01-29T16:19:25.247Z,10.80
2023-01-29T16:21:56.499Z,11.30
2023-01-29T16:24:24.930Z,11.40
2023-01-29T16:26:58.372Z,11.52
2023-01-29T16:29:33.370Z,11.07
2023-01-29T16:32:02.579Z,10.20
2023-01-29T16:34:36.459Z,10.77
2023-01-29T16:37:06.566Z,10.57
2023-01-29T16:39:36.767Z,11.88
2023-01-29T16:42:12.325Z,11.65
2023-01-29T16:44:40.332Z,12.07
2023-01-29T16:47:13.115Z,12.73
2023-01-29T16:49:39.494Z,11.48
2023-01-29T16:52:18.039Z,12.05
2023-01-29T16:54:44.544Z,11.20
2023-01-29T16:57:18.213Z,11.45
2023-01-29T16:59:45.626Z,11.90
2023-01-29T17:02:33.330Z,13.35
2023-01-29T17:05:04.119Z,11.95
2023-01-29T17:07:32.464Z,12.02
2023-01-29T17:10:02.026Z,12.48
2023-01-29T17:12:30.422Z,11.97
2023-01-29T17:15:00.413Z,13.05
2023-01-29T17:17:35.785Z,13.07
2023-01-29T17:20:13.990Z,12.75
2023-01-29T17:22:40.509Z,12.65
2023-01-29T17:25:07.640Z,13.87
2023-01-29T17:27:34.065Z,12.85
2023-01-29T17:30:00.544Z,12.45
2023-01-29T17:32:44.333Z,12.90
2023-01-29T17:35:14.252Z,13.73
2023-01-29T17:37:41.168Z,12.73
2023-01-29T17:40:13.712Z,12.10
2023-01-29T17:42:40.943Z,14.45
2023-01-29T17:45:08.196Z,12.45
2023-01-29T17:47:34.579Z,11.80
2023-01-29T17:50:00.957Z,11.90
2023-01-29T17:52:27.381Z,12.70
2023-01-29T17:54:53.753Z,14.20
2023-01-29T17:57:20.156Z,12.80
2023-01-29T17:59:46.843Z,13.15
2023-01-29T18:02:29.179Z,12.30
2023-01-29T18:04:56.223Z,12.40
2023-01-29T18:07:22.791Z,13.43
2023-01-29T18:09:49.187Z,13.55
2023-01-29T18:12:15.633Z,12.65
2023-01-29T18:14:42.096Z,12.60
2023-01-29T18:17:08.486Z,12.30
2023-01-29T18:19:34.896Z,12.98
2023-01-29T18:22:01.310Z,12.15
2023-01-29T18:24:28.007Z,12.63
2023-01-29T18:26:54.461Z,13.27
2023-01-29T18:29:20.872Z,12.23
2023-01-29T18:31:50.548Z,11.60
2023-01-29T18:34:17.234Z,13.48
2023-01-29T18:36:46.937Z,12.68
2023-01-29T18:39:14.684Z,12.00
2023-01-29T18:41:41.062Z,12.52
2023-01-29T18:44:07.572Z,12.38
2023-01-29T18:46:34.012Z,12.63
2023-01-29T18:49:00.494Z,12.90
2023-01-29T18:51:26.912Z,12.73
2023-01-29T18:53:53.358Z,11.65
2023-01-29T18:56:20.293Z,13.43
2023-01-29T18:58:52.106Z,12.35
2023-01-29T19:01:19.738Z,11.82
2023-01-29T19:03:46.287Z,13.60
2023-01-29T19:06:13.214Z,12.65
2023-01-29T19:08:40.895Z,13.75
2023-01-29T19:11:08.923Z,13.40
2023-01-29T19:13:36.627Z,11.80
2023-01-29T19:16:09.205Z,13.37
2023-01-29T19:18:36.080Z,12.73
2023-01-29T19:21:10.849Z,13.32
2023-01-29T19:23:37.514Z,12.23
2023-01-29T19:26:04.249Z,11.55
2023-01-29T19:28:30.749Z,11.97
2023-01-29T19:30:58.040Z,13.27
2023-01-29T19:33:25.212Z,12.52
2023-01-29T19:35:51.693Z,12.27
2023-01-29T19:38:21.218Z,12.70
2023-01-29T19:40:48.384Z,12.73
2023-01-29T19:43:18.201Z,12.02
2023-01-29T19:45:50.907Z,11.85
2023-01-29T19:48:21.249Z,12.35
2023-01-29T19:50:55.176Z,11.65
2023-01-29T19:53:22.836Z,12.57
2023-01-29T19:55:57.751Z,13.18
2023-01-29T19:58:25.246Z,13.85
2023-01-29T20:00:56.393Z,12.95
2023-01-29T20:03:23.189Z,13.15
2023-01-29T20:05:49.671Z,12.33
2023-01-29T20:08:16.156Z,13.20
2023-01-29T20:10:47.025Z,13.77
2023-01-29T20:13:15.066Z,13.85
2023-01-29T20:15:52.098Z,13.27
2023-01-29T20:18:19.299Z,13.40
2023-01-29T20:20:47.925Z,13.13
2023-01-29T20:23:25.019Z,14.55
2023-01-29T20:26:02.356Z,12.45
2023-01-29T20:28:28.949Z,13.30
2023-01-29T20:30:56.443Z,13.17
2023-01-29T20:33:22.882Z,14.00
2023-01-29T20:36:01.028Z,13.70
2023-01-29T20:38:30.507Z,14.05
2023-01-29T20:41:05.968Z,13.05
2023-01-29T20:43:32.630Z,13.70
2023-01-29T20:45:59.702Z,14.23
2023-01-29T20:48:26.580Z,13.85
2023-01-29T20:50:54.158Z,13.05
2023-01-29T20:53:20.650Z,12.40
2023-01-29T20:55:47.320Z,12.53
2023-01-29T20:58:14.090Z,14.05
2023-01-29T21:00:41.361Z,12.48
2023-01-29T21:03:07.877Z,15.65
2023-01-29T21:05:34.280Z,13.70
2023-01-29T21:08:00.818Z,14.63
2023-01-29T21:10:27.247Z,14.35
2023-01-29T21:12:54.686Z,13.40
2023-01-29T21:15:21.433Z,13.35
2023-01-29T21:17:48.246Z,13.52
2023-01-29T21:20:15.119Z,14.07
2023-01-29T21:22:43.884Z,12.55
2023-01-29T21:25:10.878Z,13.38
2023-01-29T21:27:37.480Z,14.25
2023-01-29T21:30:04.851Z,14.85
2023-01-29T21:32:31.464Z,14.87
2023-01-29T21:34:57.895Z,14.05
2023-01-29T21:37:24.383Z,14.38
2023-01-29T21:39:50.844Z,14.20
2023-01-29T21:42:35.846Z,13.43
2023-01-29T21:45:02.230Z,14.23
2023-01-29T21:47:28.595Z,14.10
2023-01-29T21:49:55.006Z,14.02
2023-01-29T21:52:21.531Z,12.98
2023-01-29T21:54:49.200Z,13.20
2023-01-29T21:57:16.996Z,12.63
2023-01-29T21:59:43.837Z,14.45
2023-01-29T22:02:15.304Z,13.23
2023-01-29T22:04:42.392Z,12.65
2023-01-29T22:07:10.451Z,14.18
2023-01-29T22:09:37.256Z,13.13
2023-01-29T22:12:05.450Z,14.00
2023-01-29T22:14:32.071Z,14.07
2023-01-29T22:16:58.522Z,14.50
2023-01-29T22:19:29.265Z,13.45
2023-01-29T22:21:55.725Z,12.30
2023-01-29T22:24:22.563Z,13.27
2023-01-29T22:26:49.600Z,14.27
2023-01-29T22:29:19.579Z,13.82
2023-01-29T22:31:46.398Z,14.65
2023-01-29T22:34:14.181Z,14.53
2023-01-29T22:36:41.047Z,13.57
2023-01-29T22:39:08.635Z,15.10
2023-01-29T22:41:35.457Z,14.10
2023-01-29T22:44:01.990Z,15.10
2023-01-29T22:46:28.532Z,13.87
2023-01-29T22:48:54.971Z,14.30
2023-01-29T22:51:21.367Z,14.90
2023-01-29T22:53:53.119Z,13.95
2023-01-29T22:56:21.874Z,12.80
2023-01-29T22:58:52.818Z,14.40
2023-01-29T23:01:21.847Z,13.30
2023-01-29T23:03:48.622Z,14.02
2023-01-29T23:06:16.317Z,13.27
2023-01-29T23:08:42.829Z,13.70
2023-01-29T23:11:18.675Z,13.03
2023-01-29T23:13:50.820Z,13.98
2023-01-29T23:16:18.560Z,14.07
2023-01-29T23:18:45.842Z,14.40
2023-01-29T23:21:12.598Z,13.18
2023-01-29T23:23:39.128Z,14.07
2023-01-29T23:26:25.797Z,13.23
2023-01-29T23:28:52.671Z,12.93
2023-01-29T23:31:19.265Z,13.90
2023-01-29T23:33:45.689Z,14.80
2023-01-29T23:36:12.639Z,13.37
2023-01-29T23:38:39.058Z,12.95
2023-01-29T23:41:05.805Z,13.57
2023-01-29T23:43:32.705Z,13.02
2023-01-29T23:45:59.514Z,13.27
2023-01-29T23:48:26.087Z,12.37
2023-01-29T23:50:52.604Z,13.63
2023-01-29T23:53:19.103Z,12.40
2023-01-29T23:55:59.003Z,12.95
2023-01-29T23:58:26.228Z,13.15
